sensor_id;sensor_type;location;lat;lon;timestamp;P1;durP1;ratioP1;P2;durP2;ratioP2
10463;SDS011;5279;42.048;24.638;2022-08-19T00:01:18;3.87;;;3.53;;
10463;SDS011;5279;42.048;24.638;2022-08-19T00:03:45;3.50;;;3.23;;
10463;SDS011;5279;42.048;24.638;2022-08-19T00:06:12;3.93;;;3.50;;
10463;SDS011;5279;42.048;24.638;2022-08-19T00:08:39;6.27;;;3.87;;
10463;SDS011;5279;42.048;24.638;2022-08-19T00:11:07;7.57;;;3.40;;
10463;SDS011;5279;42.048;24.638;2022-08-19T00:13:34;4.07;;;3.77;;
10463;SDS011;5279;42.048;24.638;2022-08-19T00:16:02;5.37;;;3.97;;
10463;SDS011;5279;42.048;24.638;2022-08-19T00:18:31;4.17;;;3.40;;
10463;SDS011;5279;42.048;24.638;2022-08-19T00:20:58;5.03;;;3.50;;
10463;SDS011;5279;42.048;24.638;2022-08-19T00:23:25;4.03;;;3.33;;
10463;SDS011;5279;42.048;24.638;2022-08-19T00:25:52;4.73;;;3.63;;
10463;SDS011;5279;42.048;24.638;2022-08-19T00:28:21;4.50;;;3.67;;
10463;SDS011;5279;42.048;24.638;2022-08-19T00:30:48;3.87;;;3.57;;
10463;SDS011;5279;42.048;24.638;2022-08-19T00:33:16;3.77;;;3.47;;
10463;SDS011;5279;42.048;24.638;2022-08-19T00:35:43;4.10;;;3.70;;
10463;SDS011;5279;42.048;24.638;2022-08-19T00:38:10;3.47;;;3.17;;
10463;SDS011;5279;42.048;24.638;2022-08-19T00:40:37;4.00;;;3.60;;
10463;SDS011;5279;42.048;24.638;2022-08-19T00:43:07;4.43;;;3.37;;
10463;SDS011;5279;42.048;24.638;2022-08-19T00:45:37;3.80;;;3.40;;
10463;SDS011;5279;42.048;24.638;2022-08-19T00:48:06;4.30;;;3.90;;
10463;SDS011;5279;42.048;24.638;2022-08-19T00:50:33;3.70;;;3.40;;
10463;SDS011;5279;42.048;24.638;2022-08-19T00:53:01;5.00;;;3.33;;
10463;SDS011;5279;42.048;24.638;2022-08-19T00:55:29;4.37;;;4.07;;
10463;SDS011;5279;42.048;24.638;2022-08-19T00:57:59;3.87;;;3.47;;
10463;SDS011;5279;42.048;24.638;2022-08-19T01:00:29;5.47;;;3.87;;
10463;SDS011;5279;42.048;24.638;2022-08-19T01:02:58;4.13;;;3.77;;
10463;SDS011;5279;42.048;24.638;2022-08-19T01:05:26;4.30;;;3.73;;
10463;SDS011;5279;42.048;24.638;2022-08-19T01:07:54;3.80;;;3.37;;
10463;SDS011;5279;42.048;24.638;2022-08-19T01:10:23;4.00;;;3.60;;
10463;SDS011;5279;42.048;24.638;2022-08-19T01:12:54;3.57;;;3.37;;
10463;SDS011;5279;42.048;24.638;2022-08-19T01:15:23;4.33;;;3.67;;
10463;SDS011;5279;42.048;24.638;2022-08-19T01:17:53;4.50;;;3.70;;
10463;SDS011;5279;42.048;24.638;2022-08-19T01:20:23;4.30;;;4.00;;
10463;SDS011;5279;42.048;24.638;2022-08-19T01:22:52;4.13;;;3.73;;
10463;SDS011;5279;42.048;24.638;2022-08-19T01:25:22;4.80;;;3.80;;
10463;SDS011;5279;42.048;24.638;2022-08-19T01:27:54;3.90;;;3.60;;
10463;SDS011;5279;42.048;24.638;2022-08-19T01:30:23;4.23;;;3.70;;
10463;SDS011;5279;42.048;24.638;2022-08-19T01:32:52;4.07;;;3.77;;
10463;SDS011;5279;42.048;24.638;2022-08-19T01:35:21;4.40;;;3.73;;
10463;SDS011;5279;42.048;24.638;2022-08-19T01:37:50;3.63;;;3.37;;
10463;SDS011;5279;42.048;24.638;2022-08-19T01:40:21;3.93;;;3.63;;
10463;SDS011;5279;42.048;24.638;2022-08-19T01:42:52;4.03;;;3.63;;
10463;SDS011;5279;42.048;24.638;2022-08-19T01:45:20;4.57;;;3.87;;
10463;SDS011;5279;42.048;24.638;2022-08-19T01:47:48;5.13;;;3.90;;
10463;SDS011;5279;42.048;24.638;2022-08-19T01:50:16;3.97;;;3.67;;
10463;SDS011;5279;42.048;24.638;2022-08-19T01:52:43;4.90;;;3.43;;
10463;SDS011;5279;42.048;24.638;2022-08-19T01:55:13;5.97;;;3.67;;
10463;SDS011;5279;42.048;24.638;2022-08-19T01:57:43;4.10;;;3.60;;
10463;SDS011;5279;42.048;24.638;2022-08-19T02:00:17;4.13;;;3.43;;
10463;SDS011;5279;42.048;24.638;2022-08-19T02:02:46;4.30;;;3.70;;
10463;SDS011;5279;42.048;24.638;2022-08-19T02:05:13;4.60;;;3.43;;
10463;SDS011;5279;42.048;24.638;2022-08-19T02:07:45;3.97;;;3.67;;
10463;SDS011;5279;42.048;24.638;2022-08-19T02:10:14;3.70;;;3.40;;
10463;SDS011;5279;42.048;24.638;2022-08-19T02:12:44;4.87;;;4.10;;
10463;SDS011;5279;42.048;24.638;2022-08-19T02:15:11;4.40;;;3.80;;
10463;SDS011;5279;42.048;24.638;2022-08-19T02:17:38;4.27;;;3.87;;
10463;SDS011;5279;42.048;24.638;2022-08-19T02:20:06;3.87;;;3.47;;
10463;SDS011;5279;42.048;24.638;2022-08-19T02:22:34;4.57;;;3.80;;
10463;SDS011;5279;42.048;24.638;2022-08-19T02:25:01;4.10;;;3.70;;
10463;SDS011;5279;42.048;24.638;2022-08-19T02:27:31;6.30;;;3.77;;
10463;SDS011;5279;42.048;24.638;2022-08-19T02:29:58;4.13;;;3.73;;
10463;SDS011;5279;42.048;24.638;2022-08-19T02:32:25;5.43;;;3.80;;
10463;SDS011;5279;42.048;24.638;2022-08-19T02:34:52;6.77;;;3.77;;
10463;SDS011;5279;42.048;24.638;2022-08-19T02:37:19;6.50;;;4.27;;
10463;SDS011;5279;42.048;24.638;2022-08-19T02:40:04;4.00;;;3.70;;
10463;SDS011;5279;42.048;24.638;2022-08-19T02:42:33;6.03;;;4.40;;
10463;SDS011;5279;42.048;24.638;2022-08-19T02:45:00;6.73;;;3.70;;
10463;SDS011;5279;42.048;24.638;2022-08-19T02:47:27;4.27;;;3.87;;
10463;SDS011;5279;42.048;24.638;2022-08-19T02:49:54;6.00;;;4.13;;
10463;SDS011;5279;42.048;24.638;2022-08-19T02:52:20;4.67;;;4.10;;
10463;SDS011;5279;42.048;24.638;2022-08-19T02:54:48;4.50;;;4.00;;
10463;SDS011;5279;42.048;24.638;2022-08-19T02:57:15;4.57;;;4.17;;
10463;SDS011;5279;42.048;24.638;2022-08-19T02:59:44;4.03;;;3.73;;
10463;SDS011;5279;42.048;24.638;2022-08-19T03:02:11;4.07;;;3.77;;
10463;SDS011;5279;42.048;24.638;2022-08-19T03:04:38;4.70;;;4.30;;
10463;SDS011;5279;42.048;24.638;2022-08-19T03:07:06;5.60;;;3.90;;
10463;SDS011;5279;42.048;24.638;2022-08-19T03:09:33;5.10;;;4.60;;
10463;SDS011;5279;42.048;24.638;2022-08-19T03:12:03;5.10;;;4.60;;
10463;SDS011;5279;42.048;24.638;2022-08-19T03:14:30;5.63;;;4.70;;
10463;SDS011;5279;42.048;24.638;2022-08-19T03:16:59;4.57;;;4.17;;
10463;SDS011;5279;42.048;24.638;2022-08-19T03:19:26;4.47;;;4.10;;
10463;SDS011;5279;42.048;24.638;2022-08-19T03:21:53;5.87;;;3.77;;
10463;SDS011;5279;42.048;24.638;2022-08-19T03:24:21;4.33;;;3.97;;
10463;SDS011;5279;42.048;24.638;2022-08-19T03:26:49;4.87;;;4.00;;
10463;SDS011;5279;42.048;24.638;2022-08-19T03:29:23;4.27;;;3.77;;
10463;SDS011;5279;42.048;24.638;2022-08-19T03:31:51;4.93;;;4.10;;
10463;SDS011;5279;42.048;24.638;2022-08-19T03:34:21;4.87;;;4.40;;
10463;SDS011;5279;42.048;24.638;2022-08-19T03:36:51;4.97;;;4.47;;
10463;SDS011;5279;42.048;24.638;2022-08-19T03:39:20;4.87;;;4.23;;
10463;SDS011;5279;42.048;24.638;2022-08-19T03:41:48;5.30;;;4.40;;
10463;SDS011;5279;42.048;24.638;2022-08-19T03:44:16;5.63;;;4.20;;
10463;SDS011;5279;42.048;24.638;2022-08-19T03:46:46;7.53;;;4.20;;
10463;SDS011;5279;42.048;24.638;2022-08-19T03:49:14;4.47;;;4.10;;
10463;SDS011;5279;42.048;24.638;2022-08-19T03:51:44;7.47;;;4.30;;
10463;SDS011;5279;42.048;24.638;2022-08-19T03:54:13;4.57;;;3.80;;
10463;SDS011;5279;42.048;24.638;2022-08-19T03:56:42;7.27;;;4.33;;
10463;SDS011;5279;42.048;24.638;2022-08-19T03:59:11;4.80;;;4.40;;
10463;SDS011;5279;42.048;24.638;2022-08-19T04:01:40;5.60;;;4.87;;
10463;SDS011;5279;42.048;24.638;2022-08-19T04:04:07;8.27;;;4.47;;
10463;SDS011;5279;42.048;24.638;2022-08-19T04:06:36;5.27;;;4.30;;
10463;SDS011;5279;42.048;24.638;2022-08-19T04:09:06;6.03;;;4.60;;
10463;SDS011;5279;42.048;24.638;2022-08-19T04:11:36;5.17;;;4.57;;
10463;SDS011;5279;42.048;24.638;2022-08-19T04:14:07;4.80;;;4.40;;
10463;SDS011;5279;42.048;24.638;2022-08-19T04:16:35;5.23;;;4.30;;
10463;SDS011;5279;42.048;24.638;2022-08-19T04:19:02;4.70;;;4.30;;
10463;SDS011;5279;42.048;24.638;2022-08-19T04:21:30;4.60;;;4.30;;
10463;SDS011;5279;42.048;24.638;2022-08-19T04:23:57;4.57;;;4.17;;
10463;SDS011;5279;42.048;24.638;2022-08-19T04:26:27;4.87;;;4.37;;
10463;SDS011;5279;42.048;24.638;2022-08-19T04:28:57;4.80;;;4.10;;
10463;SDS011;5279;42.048;24.638;2022-08-19T04:31:24;7.53;;;4.37;;
10463;SDS011;5279;42.048;24.638;2022-08-19T04:33:55;4.93;;;4.47;;
10463;SDS011;5279;42.048;24.638;2022-08-19T04:36:23;5.13;;;4.30;;
10463;SDS011;5279;42.048;24.638;2022-08-19T04:38:53;4.77;;;4.27;;
10463;SDS011;5279;42.048;24.638;2022-08-19T04:41:21;5.23;;;4.33;;
10463;SDS011;5279;42.048;24.638;2022-08-19T04:44:07;5.33;;;4.17;;
10463;SDS011;5279;42.048;24.638;2022-08-19T04:46:35;6.27;;;4.20;;
10463;SDS011;5279;42.048;24.638;2022-08-19T04:49:02;4.77;;;4.10;;
10463;SDS011;5279;42.048;24.638;2022-08-19T04:51:31;4.80;;;4.40;;
10463;SDS011;5279;42.048;24.638;2022-08-19T04:53:58;4.53;;;3.90;;
10463;SDS011;5279;42.048;24.638;2022-08-19T04:56:27;4.40;;;4.00;;
10463;SDS011;5279;42.048;24.638;2022-08-19T04:58:54;5.67;;;4.53;;
10463;SDS011;5279;42.048;24.638;2022-08-19T05:01:25;5.00;;;4.50;;
10463;SDS011;5279;42.048;24.638;2022-08-19T05:03:53;4.20;;;3.90;;
10463;SDS011;5279;42.048;24.638;2022-08-19T05:06:21;4.87;;;4.33;;
10463;SDS011;5279;42.048;24.638;2022-08-19T05:08:50;4.67;;;3.80;;
10463;SDS011;5279;42.048;24.638;2022-08-19T05:11:18;4.37;;;3.97;;
10463;SDS011;5279;42.048;24.638;2022-08-19T05:13:47;4.33;;;3.90;;
10463;SDS011;5279;42.048;24.638;2022-08-19T05:16:15;4.10;;;3.80;;
10463;SDS011;5279;42.048;24.638;2022-08-19T05:18:46;4.57;;;4.00;;
10463;SDS011;5279;42.048;24.638;2022-08-19T05:21:31;5.00;;;4.30;;
10463;SDS011;5279;42.048;24.638;2022-08-19T05:24:17;7.17;;;4.40;;
10463;SDS011;5279;42.048;24.638;2022-08-19T05:26:45;4.20;;;3.80;;
10463;SDS011;5279;42.048;24.638;2022-08-19T05:29:14;4.10;;;3.80;;
10463;SDS011;5279;42.048;24.638;2022-08-19T05:31:43;4.33;;;3.97;;
10463;SDS011;5279;42.048;24.638;2022-08-19T05:34:11;4.43;;;4.03;;
10463;SDS011;5279;42.048;24.638;2022-08-19T05:36:40;4.33;;;3.90;;
10463;SDS011;5279;42.048;24.638;2022-08-19T05:39:11;4.53;;;4.20;;
10463;SDS011;5279;42.048;24.638;2022-08-19T05:41:41;5.97;;;3.97;;
10463;SDS011;5279;42.048;24.638;2022-08-19T05:44:08;3.97;;;3.57;;
10463;SDS011;5279;42.048;24.638;2022-08-19T05:46:36;5.63;;;4.03;;
10463;SDS011;5279;42.048;24.638;2022-08-19T05:49:04;4.23;;;3.90;;
10463;SDS011;5279;42.048;24.638;2022-08-19T05:51:33;4.33;;;3.93;;
10463;SDS011;5279;42.048;24.638;2022-08-19T05:54:02;4.13;;;3.77;;
10463;SDS011;5279;42.048;24.638;2022-08-19T05:56:32;4.43;;;4.07;;
10463;SDS011;5279;42.048;24.638;2022-08-19T05:59:03;4.80;;;4.20;;
10463;SDS011;5279;42.048;24.638;2022-08-19T06:01:36;4.10;;;3.70;;
10463;SDS011;5279;42.048;24.638;2022-08-19T06:04:04;4.40;;;4.00;;
10463;SDS011;5279;42.048;24.638;2022-08-19T06:06:34;4.73;;;4.03;;
10463;SDS011;5279;42.048;24.638;2022-08-19T06:09:01;4.30;;;3.90;;
10463;SDS011;5279;42.048;24.638;2022-08-19T06:11:32;4.17;;;3.87;;
10463;SDS011;5279;42.048;24.638;2022-08-19T06:14:02;4.25;;;3.90;;
10463;SDS011;5279;42.048;24.638;2022-08-19T06:16:33;6.85;;;4.63;;
10463;SDS011;5279;42.048;24.638;2022-08-19T06:19:00;7.55;;;5.07;;
10463;SDS011;5279;42.048;24.638;2022-08-19T06:21:29;8.35;;;5.25;;
10463;SDS011;5279;42.048;24.638;2022-08-19T06:23:58;9.45;;;6.32;;
10463;SDS011;5279;42.048;24.638;2022-08-19T06:26:25;7.10;;;6.00;;
10463;SDS011;5279;42.048;24.638;2022-08-19T06:28:53;8.57;;;5.82;;
10463;SDS011;5279;42.048;24.638;2022-08-19T06:31:20;7.47;;;5.65;;
10463;SDS011;5279;42.048;24.638;2022-08-19T06:33:49;7.25;;;5.60;;
10463;SDS011;5279;42.048;24.638;2022-08-19T06:36:17;5.80;;;5.30;;
10463;SDS011;5279;42.048;24.638;2022-08-19T06:38:45;9.50;;;5.88;;
10463;SDS011;5279;42.048;24.638;2022-08-19T06:41:13;11.43;;;5.88;;
10463;SDS011;5279;42.048;24.638;2022-08-19T06:43:40;6.82;;;5.63;;
10463;SDS011;5279;42.048;24.638;2022-08-19T06:46:11;12.90;;;6.00;;
10463;SDS011;5279;42.048;24.638;2022-08-19T06:48:40;6.32;;;5.65;;
10463;SDS011;5279;42.048;24.638;2022-08-19T06:51:07;6.85;;;5.68;;
10463;SDS011;5279;42.048;24.638;2022-08-19T06:53:35;6.97;;;5.32;;
10463;SDS011;5279;42.048;24.638;2022-08-19T06:56:02;6.45;;;5.35;;
10463;SDS011;5279;42.048;24.638;2022-08-19T06:58:30;7.25;;;5.57;;
10463;SDS011;5279;42.048;24.638;2022-08-19T07:00:58;7.22;;;5.68;;
10463;SDS011;5279;42.048;24.638;2022-08-19T07:03:28;6.82;;;5.85;;
10463;SDS011;5279;42.048;24.638;2022-08-19T07:05:57;6.20;;;5.60;;
10463;SDS011;5279;42.048;24.638;2022-08-19T07:08:28;5.93;;;5.30;;
10463;SDS011;5279;42.048;24.638;2022-08-19T07:10:55;10.32;;;5.85;;
10463;SDS011;5279;42.048;24.638;2022-08-19T07:13:22;8.88;;;5.70;;
10463;SDS011;5279;42.048;24.638;2022-08-19T07:15:51;14.63;;;5.35;;
10463;SDS011;5279;42.048;24.638;2022-08-19T07:18:18;9.35;;;5.57;;
10463;SDS011;5279;42.048;24.638;2022-08-19T07:20:46;8.07;;;5.68;;
10463;SDS011;5279;42.048;24.638;2022-08-19T07:23:14;11.05;;;5.78;;
10463;SDS011;5279;42.048;24.638;2022-08-19T07:25:41;7.97;;;4.85;;
10463;SDS011;5279;42.048;24.638;2022-08-19T07:28:08;5.30;;;4.90;;
10463;SDS011;5279;42.048;24.638;2022-08-19T07:30:38;8.20;;;5.15;;
10463;SDS011;5279;42.048;24.638;2022-08-19T07:33:07;8.10;;;5.28;;
10463;SDS011;5279;42.048;24.638;2022-08-19T07:35:34;9.00;;;5.13;;
10463;SDS011;5279;42.048;24.638;2022-08-19T07:38:01;4.95;;;4.55;;
10463;SDS011;5279;42.048;24.638;2022-08-19T07:40:29;6.75;;;4.88;;
10463;SDS011;5279;42.048;24.638;2022-08-19T07:42:56;5.45;;;4.47;;
10463;SDS011;5279;42.048;24.638;2022-08-19T07:45:23;5.63;;;4.35;;
10463;SDS011;5279;42.048;24.638;2022-08-19T07:47:50;6.68;;;4.40;;
10463;SDS011;5279;42.048;24.638;2022-08-19T07:50:20;4.60;;;4.15;;
10463;SDS011;5279;42.048;24.638;2022-08-19T07:52:48;4.45;;;4.15;;
10463;SDS011;5279;42.048;24.638;2022-08-19T07:55:16;7.50;;;4.25;;
10463;SDS011;5279;42.048;24.638;2022-08-19T07:57:45;5.25;;;4.47;;
10463;SDS011;5279;42.048;24.638;2022-08-19T08:00:12;4.28;;;3.92;;
10463;SDS011;5279;42.048;24.638;2022-08-19T08:02:40;4.85;;;4.40;;
10463;SDS011;5279;42.048;24.638;2022-08-19T08:05:08;3.80;;;3.47;;
10463;SDS011;5279;42.048;24.638;2022-08-19T08:07:55;3.47;;;3.28;;
10463;SDS011;5279;42.048;24.638;2022-08-19T08:10:39;4.65;;;3.90;;
10463;SDS011;5279;42.048;24.638;2022-08-19T08:13:06;4.00;;;3.70;;
10463;SDS011;5279;42.048;24.638;2022-08-19T08:15:33;3.30;;;3.10;;
10463;SDS011;5279;42.048;24.638;2022-08-19T08:18:02;3.60;;;3.30;;
10463;SDS011;5279;42.048;24.638;2022-08-19T08:20:29;3.67;;;3.28;;
10463;SDS011;5279;42.048;24.638;2022-08-19T08:22:57;6.50;;;3.45;;
10463;SDS011;5279;42.048;24.638;2022-08-19T08:25:41;3.53;;;3.33;;
10463;SDS011;5279;42.048;24.638;2022-08-19T08:28:08;3.47;;;3.20;;
10463;SDS011;5279;42.048;24.638;2022-08-19T08:30:35;4.57;;;3.38;;
10463;SDS011;5279;42.048;24.638;2022-08-19T08:33:06;4.47;;;3.53;;
10463;SDS011;5279;42.048;24.638;2022-08-19T08:35:33;3.63;;;3.28;;
10463;SDS011;5279;42.048;24.638;2022-08-19T08:38:02;3.67;;;3.38;;
10463;SDS011;5279;42.048;24.638;2022-08-19T08:40:32;3.83;;;3.38;;
10463;SDS011;5279;42.048;24.638;2022-08-19T08:43:06;3.53;;;3.22;;
10463;SDS011;5279;42.048;24.638;2022-08-19T08:45:36;4.60;;;3.40;;
10463;SDS011;5279;42.048;24.638;2022-08-19T08:48:12;4.03;;;3.38;;
10463;SDS011;5279;42.048;24.638;2022-08-19T08:50:45;3.10;;;2.80;;
10463;SDS011;5279;42.048;24.638;2022-08-19T08:53:17;3.17;;;2.90;;
10463;SDS011;5279;42.048;24.638;2022-08-19T08:55:45;3.30;;;3.00;;
10463;SDS011;5279;42.048;24.638;2022-08-19T08:58:13;3.08;;;2.88;;
10463;SDS011;5279;42.048;24.638;2022-08-19T09:00:47;3.50;;;3.20;;
10463;SDS011;5279;42.048;24.638;2022-08-19T09:03:17;3.42;;;3.13;;
10463;SDS011;5279;42.048;24.638;2022-08-19T09:05:54;3.83;;;3.08;;
10463;SDS011;5279;42.048;24.638;2022-08-19T09:08:30;3.38;;;3.10;;
10463;SDS011;5279;42.048;24.638;2022-08-19T09:11:06;5.82;;;3.15;;
10463;SDS011;5279;42.048;24.638;2022-08-19T09:13:37;3.55;;;3.10;;
10463;SDS011;5279;42.048;24.638;2022-08-19T09:16:13;4.10;;;2.83;;
10463;SDS011;5279;42.048;24.638;2022-08-19T09:18:44;3.85;;;3.10;;
10463;SDS011;5279;42.048;24.638;2022-08-19T09:21:14;4.90;;;3.30;;
10463;SDS011;5279;42.048;24.638;2022-08-19T09:23:42;4.18;;;2.97;;
10463;SDS011;5279;42.048;24.638;2022-08-19T09:26:10;3.85;;;3.20;;
10463;SDS011;5279;42.048;24.638;2022-08-19T09:28:39;4.15;;;2.60;;
10463;SDS011;5279;42.048;24.638;2022-08-19T09:31:08;3.10;;;2.90;;
10463;SDS011;5279;42.048;24.638;2022-08-19T09:33:35;5.22;;;3.13;;
10463;SDS011;5279;42.048;24.638;2022-08-19T09:36:04;4.30;;;2.90;;
10463;SDS011;5279;42.048;24.638;2022-08-19T09:38:32;6.35;;;3.25;;
10463;SDS011;5279;42.048;24.638;2022-08-19T09:41:04;3.67;;;3.00;;
10463;SDS011;5279;42.048;24.638;2022-08-19T09:43:32;3.22;;;2.92;;
10463;SDS011;5279;42.048;24.638;2022-08-19T09:46:02;3.55;;;2.90;;
10463;SDS011;5279;42.048;24.638;2022-08-19T09:48:30;3.30;;;3.00;;
10463;SDS011;5279;42.048;24.638;2022-08-19T09:51:02;3.75;;;2.47;;
10463;SDS011;5279;42.048;24.638;2022-08-19T09:53:30;3.10;;;2.90;;
10463;SDS011;5279;42.048;24.638;2022-08-19T09:55:57;3.35;;;2.90;;
10463;SDS011;5279;42.048;24.638;2022-08-19T09:58:25;5.22;;;2.95;;
10463;SDS011;5279;42.048;24.638;2022-08-19T10:00:54;3.30;;;3.00;;
10463;SDS011;5279;42.048;24.638;2022-08-19T10:03:24;3.15;;;2.85;;
10463;SDS011;5279;42.048;24.638;2022-08-19T10:05:52;4.43;;;3.15;;
10463;SDS011;5279;42.048;24.638;2022-08-19T10:08:20;14.18;;;3.50;;
10463;SDS011;5279;42.048;24.638;2022-08-19T10:10:48;4.55;;;3.08;;
10463;SDS011;5279;42.048;24.638;2022-08-19T10:13:17;3.47;;;3.17;;
10463;SDS011;5279;42.048;24.638;2022-08-19T10:15:53;3.30;;;3.10;;
10463;SDS011;5279;42.048;24.638;2022-08-19T10:18:22;5.95;;;3.35;;
10463;SDS011;5279;42.048;24.638;2022-08-19T10:20:51;4.13;;;3.20;;
10463;SDS011;5279;42.048;24.638;2022-08-19T10:23:19;3.13;;;2.92;;
10463;SDS011;5279;42.048;24.638;2022-08-19T10:25:47;3.72;;;3.08;;
10463;SDS011;5279;42.048;24.638;2022-08-19T10:28:14;3.85;;;3.05;;
10463;SDS011;5279;42.048;24.638;2022-08-19T10:30:41;3.40;;;3.10;;
10463;SDS011;5279;42.048;24.638;2022-08-19T10:33:10;7.22;;;2.88;;
10463;SDS011;5279;42.048;24.638;2022-08-19T10:35:37;4.00;;;3.03;;
10463;SDS011;5279;42.048;24.638;2022-08-19T10:38:04;3.17;;;2.85;;
10463;SDS011;5279;42.048;24.638;2022-08-19T10:40:31;6.97;;;3.28;;
10463;SDS011;5279;42.048;24.638;2022-08-19T10:42:58;3.17;;;2.88;;
10463;SDS011;5279;42.048;24.638;2022-08-19T10:45:24;2.95;;;2.70;;
10463;SDS011;5279;42.048;24.638;2022-08-19T10:47:52;2.90;;;2.70;;
10463;SDS011;5279;42.048;24.638;2022-08-19T10:50:21;12.63;;;3.20;;
10463;SDS011;5279;42.048;24.638;2022-08-19T10:53:07;3.05;;;2.83;;
10463;SDS011;5279;42.048;24.638;2022-08-19T10:55:34;4.07;;;2.92;;
10463;SDS011;5279;42.048;24.638;2022-08-19T10:58:19;5.10;;;2.90;;
10463;SDS011;5279;42.048;24.638;2022-08-19T11:00:51;3.30;;;3.00;;
10463;SDS011;5279;42.048;24.638;2022-08-19T11:03:19;3.70;;;3.00;;
10463;SDS011;5279;42.048;24.638;2022-08-19T11:05:51;3.53;;;2.60;;
10463;SDS011;5279;42.048;24.638;2022-08-19T11:08:23;4.03;;;2.80;;
10463;SDS011;5279;42.048;24.638;2022-08-19T11:10:52;3.88;;;3.25;;
10463;SDS011;5279;42.048;24.638;2022-08-19T11:13:25;2.92;;;2.72;;
10463;SDS011;5279;42.048;24.638;2022-08-19T11:15:57;4.68;;;3.05;;
10463;SDS011;5279;42.048;24.638;2022-08-19T11:18:24;3.03;;;2.70;;
10463;SDS011;5279;42.048;24.638;2022-08-19T11:20:53;5.22;;;2.67;;
10463;SDS011;5279;42.048;24.638;2022-08-19T11:23:19;3.65;;;3.00;;
10463;SDS011;5279;42.048;24.638;2022-08-19T11:25:46;3.88;;;2.88;;
10463;SDS011;5279;42.048;24.638;2022-08-19T11:28:13;5.03;;;2.90;;
10463;SDS011;5279;42.048;24.638;2022-08-19T11:30:40;4.80;;;2.65;;
10463;SDS011;5279;42.048;24.638;2022-08-19T11:33:07;3.55;;;3.10;;
10463;SDS011;5279;42.048;24.638;2022-08-19T11:35:38;3.75;;;2.70;;
10463;SDS011;5279;42.048;24.638;2022-08-19T11:38:07;4.00;;;3.08;;
10463;SDS011;5279;42.048;24.638;2022-08-19T11:40:35;3.70;;;2.90;;
10463;SDS011;5279;42.048;24.638;2022-08-19T11:43:02;3.97;;;2.80;;
10463;SDS011;5279;42.048;24.638;2022-08-19T11:45:29;3.58;;;2.65;;
10463;SDS011;5279;42.048;24.638;2022-08-19T11:47:56;3.22;;;2.92;;
10463;SDS011;5279;42.048;24.638;2022-08-19T11:50:23;3.92;;;3.10;;
10463;SDS011;5279;42.048;24.638;2022-08-19T11:52:52;2.80;;;2.45;;
10463;SDS011;5279;42.048;24.638;2022-08-19T11:55:21;2.63;;;2.42;;
10463;SDS011;5279;42.048;24.638;2022-08-19T11:57:49;3.05;;;2.75;;
10463;SDS011;5279;42.048;24.638;2022-08-19T12:00:16;3.00;;;2.70;;
10463;SDS011;5279;42.048;24.638;2022-08-19T12:02:44;3.03;;;2.63;;
10463;SDS011;5279;42.048;24.638;2022-08-19T12:05:11;2.63;;;2.42;;
10463;SDS011;5279;42.048;24.638;2022-08-19T12:07:38;2.88;;;2.47;;
10463;SDS011;5279;42.048;24.638;2022-08-19T12:10:06;3.40;;;3.03;;
10463;SDS011;5279;42.048;24.638;2022-08-19T12:12:36;3.83;;;3.17;;
10463;SDS011;5279;42.048;24.638;2022-08-19T12:15:08;3.33;;;2.42;;
10463;SDS011;5279;42.048;24.638;2022-08-19T12:17:35;3.00;;;2.80;;
10463;SDS011;5279;42.048;24.638;2022-08-19T12:20:03;6.30;;;3.20;;
10463;SDS011;5279;42.048;24.638;2022-08-19T12:22:31;4.00;;;3.60;;
10463;SDS011;5279;42.048;24.638;2022-08-19T12:24:58;3.50;;;3.20;;
10463;SDS011;5279;42.048;24.638;2022-08-19T12:27:25;3.55;;;2.90;;
10463;SDS011;5279;42.048;24.638;2022-08-19T12:29:54;3.92;;;2.97;;
10463;SDS011;5279;42.048;24.638;2022-08-19T12:32:20;5.75;;;3.10;;
10463;SDS011;5279;42.048;24.638;2022-08-19T12:34:47;5.32;;;3.22;;
10463;SDS011;5279;42.048;24.638;2022-08-19T12:37:14;3.60;;;3.22;;
10463;SDS011;5279;42.048;24.638;2022-08-19T12:39:42;3.60;;;3.30;;
10463;SDS011;5279;42.048;24.638;2022-08-19T12:42:10;3.58;;;3.30;;
10463;SDS011;5279;42.048;24.638;2022-08-19T12:44:39;5.15;;;3.33;;
10463;SDS011;5279;42.048;24.638;2022-08-19T12:47:09;3.67;;;3.38;;
10463;SDS011;5279;42.048;24.638;2022-08-19T12:49:38;3.70;;;3.30;;
10463;SDS011;5279;42.048;24.638;2022-08-19T12:52:05;3.78;;;3.47;;
10463;SDS011;5279;42.048;24.638;2022-08-19T12:54:33;3.40;;;3.10;;
10463;SDS011;5279;42.048;24.638;2022-08-19T12:57:04;4.13;;;3.42;;
10463;SDS011;5279;42.048;24.638;2022-08-19T12:59:32;5.18;;;3.05;;
10463;SDS011;5279;42.048;24.638;2022-08-19T13:01:59;6.63;;;3.20;;
10463;SDS011;5279;42.048;24.638;2022-08-19T13:04:28;3.60;;;3.22;;
10463;SDS011;5279;42.048;24.638;2022-08-19T13:06:54;4.28;;;3.30;;
10463;SDS011;5279;42.048;24.638;2022-08-19T13:09:21;3.60;;;3.30;;
10463;SDS011;5279;42.048;24.638;2022-08-19T13:11:48;5.15;;;3.33;;
10463;SDS011;5279;42.048;24.638;2022-08-19T13:14:15;4.97;;;3.13;;
10463;SDS011;5279;42.048;24.638;2022-08-19T13:16:42;4.13;;;3.70;;
10463;SDS011;5279;42.048;24.638;2022-08-19T13:19:09;4.88;;;3.30;;
10463;SDS011;5279;42.048;24.638;2022-08-19T13:21:38;4.90;;;3.75;;
10463;SDS011;5279;42.048;24.638;2022-08-19T13:24:05;4.03;;;3.30;;
10463;SDS011;5279;42.048;24.638;2022-08-19T13:26:32;4.50;;;3.08;;
10463;SDS011;5279;42.048;24.638;2022-08-19T13:28:59;4.68;;;3.88;;
10463;SDS011;5279;42.048;24.638;2022-08-19T13:31:44;3.47;;;3.20;;
10463;SDS011;5279;42.048;24.638;2022-08-19T13:34:30;5.72;;;3.55;;
10463;SDS011;5279;42.048;24.638;2022-08-19T13:37:00;7.43;;;3.60;;
10463;SDS011;5279;42.048;24.638;2022-08-19T13:39:29;5.13;;;3.17;;
10463;SDS011;5279;42.048;24.638;2022-08-19T13:41:57;4.28;;;3.38;;
10463;SDS011;5279;42.048;24.638;2022-08-19T13:44:25;5.82;;;3.38;;
10463;SDS011;5279;42.048;24.638;2022-08-19T13:46:54;3.95;;;3.45;;
10463;SDS011;5279;42.048;24.638;2022-08-19T13:49:27;5.45;;;3.47;;
10463;SDS011;5279;42.048;24.638;2022-08-19T13:51:56;5.00;;;3.40;;
10463;SDS011;5279;42.048;24.638;2022-08-19T13:54:24;4.80;;;3.72;;
10463;SDS011;5279;42.048;24.638;2022-08-19T13:56:52;4.22;;;3.20;;
10463;SDS011;5279;42.048;24.638;2022-08-19T13:59:19;4.55;;;3.45;;
10463;SDS011;5279;42.048;24.638;2022-08-19T14:01:45;3.53;;;3.22;;
10463;SDS011;5279;42.048;24.638;2022-08-19T14:04:12;6.65;;;3.75;;
10463;SDS011;5279;42.048;24.638;2022-08-19T14:06:39;3.90;;;3.60;;
10463;SDS011;5279;42.048;24.638;2022-08-19T14:09:06;6.35;;;3.60;;
10463;SDS011;5279;42.048;24.638;2022-08-19T14:11:34;4.30;;;3.80;;
10463;SDS011;5279;42.048;24.638;2022-08-19T14:14:02;3.70;;;3.42;;
10463;SDS011;5279;42.048;24.638;2022-08-19T14:16:29;3.55;;;3.25;;
10463;SDS011;5279;42.048;24.638;2022-08-19T14:18:56;4.63;;;3.88;;
10463;SDS011;5279;42.048;24.638;2022-08-19T14:21:24;4.13;;;3.72;;
10463;SDS011;5279;42.048;24.638;2022-08-19T14:23:51;3.75;;;3.45;;
10463;SDS011;5279;42.048;24.638;2022-08-19T14:26:19;5.35;;;3.88;;
10463;SDS011;5279;42.048;24.638;2022-08-19T14:28:58;3.90;;;3.53;;
10463;SDS011;5279;42.048;24.638;2022-08-19T14:31:26;3.92;;;3.60;;
10463;SDS011;5279;42.048;24.638;2022-08-19T14:33:53;4.65;;;3.72;;
10463;SDS011;5279;42.048;24.638;2022-08-19T14:36:20;4.07;;;3.53;;
10463;SDS011;5279;42.048;24.638;2022-08-19T14:38:47;3.95;;;3.63;;
10463;SDS011;5279;42.048;24.638;2022-08-19T14:41:15;4.20;;;3.80;;
10463;SDS011;5279;42.048;24.638;2022-08-19T14:43:44;5.75;;;4.20;;
10463;SDS011;5279;42.048;24.638;2022-08-19T14:46:13;3.97;;;3.67;;
10463;SDS011;5279;42.048;24.638;2022-08-19T14:48:41;5.65;;;3.83;;
10463;SDS011;5279;42.048;24.638;2022-08-19T14:51:09;4.20;;;3.80;;
10463;SDS011;5279;42.048;24.638;2022-08-19T14:53:35;6.65;;;3.63;;
10463;SDS011;5279;42.048;24.638;2022-08-19T14:56:06;5.28;;;3.65;;
10463;SDS011;5279;42.048;24.638;2022-08-19T14:58:34;5.40;;;3.42;;